Time;durP1;ratioP1;P1;durP2;ratioP2;P2;SDS_P1;SDS_P2;PMS_P1;PMS_P2;Temp;Humidity;BMP_temperature;BMP_pressure;BME280_temperature;BME280_humidity;BME280_pressure;Samples;Min_cycle;Max_cycle;Signal;HPM_P1;HPM_P2
2022/09/09 05:00:23;;;;;;;1.40;1.10;;;17.30;97.20;;;;;;1749099;28;20630;-69
2022/09/09 05:01:17;;;;;;;2.80;1.10;;;17.30;97.20;;;;;;1750007;28;20668;-69
2022/09/09 05:02:08;;;;;;;3.15;1.30;;;17.30;97.20;;;;;;1754256;28;20190;-68
2022/09/09 05:03:04;;;;;;;3.92;1.25;;;17.30;97.20;;;;;;1757221;28;20233;-68
2022/09/09 05:03:55;;;;;;;2.88;1.15;;;17.30;97.20;;;;;;1763141;27;20189;-69
2022/09/09 05:04:46;;;;;;;1.98;1.10;;;17.40;97.20;;;;;;1762865;28;20205;-69
2022/09/09 05:05:38;;;;;;;2.07;1.10;;;17.40;97.20;;;;;;1762636;28;20197;-71
2022/09/09 05:06:31;;;;;;;2.67;1.30;;;17.40;97.20;;;;;;1762884;28;20232;-69
2022/09/09 05:07:23;;;;;;;1.48;1.20;;;17.40;97.20;;;;;;1758660;28;20323;-68
2022/09/09 05:08:13;;;;;;;2.63;1.23;;;17.40;97.20;;;;;;1755948;28;20194;-69
2022/09/09 05:09:05;;;;;;;2.50;1.30;;;17.40;97.20;;;;;;1755837;28;20202;-69
2022/09/09 05:09:56;;;;;;;4.43;1.48;;;17.40;97.20;;;;;;1755959;28;20205;-69
2022/09/09 05:10:48;;;;;;;1.97;1.10;;;17.40;97.20;;;;;;1755892;28;20208;-69
2022/09/09 05:11:38;;;;;;;3.28;1.30;;;17.40;97.20;;;;;;1755948;28;20206;-69
2022/09/09 05:12:31;;;;;;;2.03;1.30;;;17.40;97.20;;;;;;1755848;28;20205;-69
2022/09/09 05:13:22;;;;;;;3.05;1.38;;;17.30;97.20;;;;;;1755890;28;20204;-70
2022/09/09 05:14:14;;;;;;;3.10;1.60;;;17.30;97.20;;;;;;1755748;28;20253;-70
2022/09/09 05:15:06;;;;;;;3.85;1.27;;;17.30;97.20;;;;;;1755878;28;20339;-70
2022/09/09 05:15:59;;;;;;;3.28;1.20;;;17.30;97.20;;;;;;1755824;28;20194;-70
2022/09/09 05:16:51;;;;;;;2.00;1.10;;;17.30;97.20;;;;;;1755721;28;20208;-70
2022/09/09 05:17:42;;;;;;;1.45;1.00;;;17.30;97.20;;;;;;1755560;28;20290;-69
2022/09/09 05:18:33;;;;;;;2.75;1.40;;;17.30;97.20;;;;;;1755515;28;20221;-70
2022/09/09 05:19:25;;;;;;;2.63;1.20;;;17.30;97.20;;;;;;1758723;28;20197;-71
2022/09/09 05:20:16;;;;;;;3.13;1.42;;;17.30;97.20;;;;;;1762831;28;20209;-72
2022/09/09 05:21:08;;;;;;;1.60;1.10;;;17.30;97.20;;;;;;1762836;28;20200;-72
2022/09/09 05:21:59;;;;;;;2.42;1.33;;;17.30;97.20;;;;;;1759651;28;20239;-71
2022/09/09 05:22:53;;;;;;;5.10;1.23;;;17.40;97.20;;;;;;1752334;28;20194;-72
2022/09/09 05:23:46;;;;;;;1.85;1.60;;;17.40;97.20;;;;;;1755773;28;20198;-71
2022/09/09 05:24:37;;;;;;;2.65;1.30;;;17.40;97.20;;;;;;1748875;28;20206;-71
2022/09/09 05:25:29;;;;;;;4.68;1.52;;;17.40;97.20;;;;;;1748859;28;20598;-73
2022/09/09 05:26:21;;;;;;;3.95;1.30;;;17.40;97.20;;;;;;1748872;28;20240;-71
2022/09/09 05:27:13;;;;;;;3.35;1.20;;;17.40;97.20;;;;;;1748330;28;20214;-72
2022/09/09 05:28:05;;;;;;;2.47;1.50;;;17.40;97.20;;;;;;1753221;28;20203;-72
2022/09/09 05:28:56;;;;;;;2.28;1.40;;;17.40;97.20;;;;;;1762793;28;20193;-72
2022/09/09 05:29:47;;;;;;;1.95;1.58;;;17.40;97.20;;;;;;1762864;27;20686;-71
2022/09/09 05:30:39;;;;;;;3.63;1.90;;;17.40;97.20;;;;;;1762753;28;20647;-71
2022/09/09 05:31:32;;;;;;;2.33;1.50;;;17.40;97.20;;;;;;1762719;28;21092;-72
2022/09/09 05:32:24;;;;;;;2.88;1.50;;;17.40;97.20;;;;;;1761297;27;20201;-71
2022/09/09 05:33:15;;;;;;;2.38;1.60;;;17.40;97.20;;;;;;1751736;28;20222;-71
2022/09/09 05:34:07;;;;;;;3.27;1.73;;;17.40;97.20;;;;;;1755612;28;20224;-71
2022/09/09 05:34:58;;;;;;;3.08;1.45;;;17.40;97.20;;;;;;1761115;28;20660;-72
2022/09/09 05:35:56;;;;;;;3.03;1.45;;;17.40;97.20;;;;;;1762701;28;20224;-72
2022/09/09 05:36:48;;;;;;;2.20;1.50;;;17.40;97.20;;;;;;1762717;28;20706;-71
2022/09/09 05:37:39;;;;;;;3.03;1.50;;;17.40;97.20;;;;;;1753469;28;20205;-72
2022/09/09 05:38:32;;;;;;;4.07;1.50;;;17.40;97.20;;;;;;1748602;28;20198;-72
2022/09/09 05:39:23;;;;;;;2.78;1.20;;;17.40;97.20;;;;;;1754686;28;20302;-71
2022/09/09 05:40:14;;;;;;;2.80;1.23;;;17.40;97.20;;;;;;1762798;27;20197;-71
2022/09/09 05:41:05;;;;;;;2.80;1.20;;;17.40;97.20;;;;;;1762664;28;20552;-71
2022/09/09 05:41:57;;;;;;;4.17;1.47;;;17.40;97.20;;;;;;1762731;28;20595;-71
2022/09/09 05:42:48;;;;;;;4.22;1.30;;;17.40;97.20;;;;;;1762746;28;20856;-72
2022/09/09 05:43:40;;;;;;;2.33;1.60;;;17.40;97.20;;;;;;1757844;27;20189;-72
2022/09/09 05:44:30;;;;;;;2.67;1.20;;;17.50;97.20;;;;;;1755652;28;20219;-72
2022/09/09 05:45:22;;;;;;;1.23;1.10;;;17.50;97.20;;;;;;1755722;28;20202;-71
2022/09/09 05:46:14;;;;;;;2.53;1.10;;;17.50;97.20;;;;;;1755646;28;20210;-72
2022/09/09 05:47:09;;;;;;;3.25;1.33;;;17.50;97.20;;;;;;1752037;28;20213;-72
2022/09/09 05:48:01;;;;;;;2.72;1.25;;;17.60;97.20;;;;;;1754937;28;20198;-71
2022/09/09 05:48:54;;;;;;;2.30;1.42;;;17.60;97.20;;;;;;1756973;28;20194;-72
2022/09/09 05:49:45;;;;;;;2.00;1.15;;;17.60;97.20;;;;;;1751109;28;20347;-72
2022/09/09 05:50:37;;;;;;;2.50;1.33;;;17.60;97.20;;;;;;1748640;28;20195;-71
2022/09/09 05:51:30;;;;;;;3.65;1.50;;;17.60;97.20;;;;;;1754327;28;20208;-72
2022/09/09 05:52:22;;;;;;;2.15;1.05;;;17.60;97.20;;;;;;1762632;28;20193;-71
2022/09/09 05:53:13;;;;;;;1.92;1.20;;;17.60;97.20;;;;;;1753433;28;20251;-72
2022/09/09 05:54:05;;;;;;;3.00;1.20;;;17.60;97.20;;;;;;1752238;28;20239;-72
2022/09/09 05:54:56;;;;;;;2.63;1.35;;;17.60;97.20;;;;;;1755706;28;20198;-72
2022/09/09 05:55:48;;;;;;;3.63;1.83;;;17.60;97.20;;;;;;1751135;28;20186;-71
2022/09/09 05:56:39;;;;;;;3.17;1.27;;;17.60;97.20;;;;;;1750502;28;20210;-72
2022/09/09 05:57:31;;;;;;;1.90;0.97;;;17.60;97.20;;;;;;1755282;28;20284;-72
2022/09/09 05:58:22;;;;;;;3.78;1.20;;;17.60;97.20;;;;;;1760629;28;20691;-74
2022/09/09 05:59:14;;;;;;;5.20;1.10;;;17.60;97.20;;;;;;1762606;28;20593;-73
2022/09/09 06:00:06;;;;;;;2.20;1.27;;;17.70;97.20;;;;;;1762538;27;20692;-72
2022/09/09 06:01:03;;;;;;;3.42;1.60;;;17.70;97.20;;;;;;1762618;28;20247;-71
2022/09/09 06:01:54;;;;;;;2.88;1.35;;;17.70;97.20;;;;;;1761748;28;20197;-72
2022/09/09 06:02:52;;;;;;;6.23;1.70;;;17.70;97.20;;;;;;1755574;28;20193;-71
2022/09/09 06:03:44;;;;;;;2.47;1.20;;;17.70;97.20;;;;;;1752153;28;20444;-71
2022/09/09 06:04:36;;;;;;;2.65;1.05;;;17.70;97.20;;;;;;1748684;28;20194;-71
2022/09/09 06:05:27;;;;;;;2.10;1.08;;;17.70;97.20;;;;;;1750228;28;20202;-71
2022/09/09 06:06:21;;;;;;;2.30;1.13;;;17.70;97.20;;;;;;1751323;28;20190;-71
2022/09/09 06:07:14;;;;;;;2.13;1.05;;;17.70;97.20;;;;;;1748200;28;20251;-72
2022/09/09 06:08:07;;;;;;;3.63;1.60;;;17.70;97.20;;;;;;1748604;28;20202;-71
2022/09/09 06:08:58;;;;;;;2.10;1.05;;;17.70;97.20;;;;;;1748420;28;20669;-71
2022/09/09 06:09:51;;;;;;;2.65;1.27;;;17.70;97.20;;;;;;1748505;28;20202;-71
2022/09/09 06:10:41;;;;;;;2.20;1.30;;;17.80;97.20;;;;;;1748524;28;20198;-71
2022/09/09 06:11:34;;;;;;;1.97;1.10;;;17.80;97.20;;;;;;1748527;28;20194;-71
2022/09/09 06:12:25;;;;;;;2.03;1.10;;;17.80;97.20;;;;;;1748559;28;20210;-70
2022/09/09 06:13:17;;;;;;;2.08;1.13;;;17.80;97.20;;;;;;1749649;28;20202;-71
2022/09/09 06:14:09;;;;;;;2.85;1.20;;;17.80;97.20;;;;;;1750359;28;20610;-71
2022/09/09 06:15:00;;;;;;;4.30;1.50;;;17.80;97.20;;;;;;1755492;28;20201;-72
2022/09/09 06:15:51;;;;;;;2.42;1.13;;;17.80;97.20;;;;;;1751257;28;20194;-72
2022/09/09 06:16:43;;;;;;;1.27;1.02;;;17.80;97.20;;;;;;1747868;28;20206;-71
2022/09/09 06:17:34;;;;;;;2.60;1.42;;;17.80;97.20;;;;;;1747949;28;20217;-71
2022/09/09 06:18:27;;;;;;;3.43;1.10;;;17.80;97.20;;;;;;1748417;28;20202;-71
2022/09/09 06:19:20;;;;;;;1.80;1.20;;;17.80;97.20;;;;;;1748511;28;20237;-71
2022/09/09 06:20:13;;;;;;;2.67;1.25;;;17.80;97.20;;;;;;1748447;28;20229;-71
2022/09/09 06:21:06;;;;;;;2.00;1.20;;;17.80;97.20;;;;;;1748455;28;20290;-71
2022/09/09 06:21:58;;;;;;;2.40;1.10;;;17.90;97.20;;;;;;1748419;28;20198;-71
2022/09/09 06:22:49;;;;;;;3.92;1.20;;;17.90;97.20;;;;;;1748414;28;20203;-71
2022/09/09 06:23:41;;;;;;;2.30;1.37;;;17.90;97.20;;;;;;1748389;28;20286;-70
2022/09/09 06:24:32;;;;;;;1.88;1.23;;;17.90;97.20;;;;;;1748443;28;20263;-71
2022/09/09 06:25:25;;;;;;;1.35;1.15;;;17.90;97.20;;;;;;1748395;28;20611;-71
2022/09/09 06:26:17;;;;;;;1.98;1.35;;;17.90;97.20;;;;;;1748315;28;20217;-71
2022/09/09 06:27:10;;;;;;;2.00;1.13;;;17.90;97.20;;;;;;1748184;28;20214;-71
2022/09/09 06:28:02;;;;;;;2.60;1.05;;;17.90;97.20;;;;;;1748401;28;20210;-71
2022/09/09 06:28:55;;;;;;;1.98;1.10;;;17.90;97.20;;;;;;1748274;28;20198;-71
2022/09/09 06:29:45;;;;;;;4.45;1.55;;;17.90;97.20;;;;;;1748395;28;20218;-71
2022/09/09 06:30:38;;;;;;;1.50;1.10;;;17.90;97.20;;;;;;1751869;28;20273;-72
2022/09/09 06:31:30;;;;;;;1.90;1.15;;;17.90;97.20;;;;;;1755047;28;20225;-71
2022/09/09 06:32:22;;;;;;;2.45;1.30;;;17.90;97.20;;;;;;1755285;28;20213;-71
2022/09/09 06:33:13;;;;;;;3.10;1.30;;;17.90;97.20;;;;;;1755457;28;20659;-71
2022/09/09 06:34:07;;;;;;;2.05;1.45;;;17.90;97.20;;;;;;1755305;28;20197;-71
2022/09/09 06:35:01;;;;;;;2.78;1.33;;;17.90;97.20;;;;;;1755283;28;20249;-70
2022/09/09 06:35:53;;;;;;;2.55;1.20;;;17.90;97.20;;;;;;1755296;28;20251;-71
2022/09/09 06:36:45;;;;;;;1.95;1.13;;;17.90;97.20;;;;;;1755200;28;20672;-71
2022/09/09 06:37:37;;;;;;;10.85;1.40;;;17.90;97.20;;;;;;1755088;28;20872;-72
2022/09/09 06:38:28;;;;;;;3.58;1.27;;;17.90;97.20;;;;;;1755252;28;20201;-71
2022/09/09 06:39:20;;;;;;;3.07;1.63;;;17.90;97.20;;;;;;1755326;28;20204;-72
2022/09/09 06:40:11;;;;;;;1.92;1.15;;;18.00;97.20;;;;;;1755265;28;20671;-71
2022/09/09 06:41:03;;;;;;;2.90;1.27;;;18.00;97.20;;;;;;1755442;28;20611;-70
2022/09/09 06:41:53;;;;;;;4.53;1.30;;;18.00;97.20;;;;;;1755236;28;20661;-71
2022/09/09 06:42:45;;;;;;;3.83;1.30;;;18.00;97.20;;;;;;1755262;28;20570;-71
2022/09/09 06:43:36;;;;;;;2.95;1.00;;;18.00;97.20;;;;;;1755232;28;20209;-71
2022/09/09 06:44:28;;;;;;;3.83;1.17;;;18.00;97.20;;;;;;1752834;28;20200;-71
2022/09/09 06:45:18;;;;;;;2.22;1.10;;;18.10;97.20;;;;;;1748746;28;20489;-72
2022/09/09 06:46:13;;;;;;;4.00;1.23;;;18.10;97.20;;;;;;1755192;28;20194;-71
2022/09/09 06:47:04;;;;;;;3.50;1.30;;;18.10;97.20;;;;;;1755136;28;20824;-71
2022/09/09 06:47:57;;;;;;;1.90;1.27;;;18.10;97.20;;;;;;1754705;28;20186;-71
2022/09/09 06:48:48;;;;;;;3.35;1.17;;;18.10;97.20;;;;;;1755149;28;20262;-71
2022/09/09 06:49:43;;;;;;;2.00;1.33;;;18.10;97.20;;;;;;1755274;28;20302;-71
2022/09/09 06:50:34;;;;;;;2.78;1.33;;;18.10;97.20;;;;;;1755216;28;20293;-71
2022/09/09 06:51:28;;;;;;;1.83;1.20;;;18.20;97.20;;;;;;1755293;28;20675;-71
2022/09/09 06:52:19;;;;;;;1.75;1.20;;;18.20;97.20;;;;;;1755287;28;20225;-71
2022/09/09 06:53:10;;;;;;;1.98;1.23;;;18.20;97.20;;;;;;1755330;28;20198;-71
2022/09/09 06:54:02;;;;;;;3.45;1.30;;;18.20;97.20;;;;;;1755210;28;20693;-71
2022/09/09 06:54:54;;;;;;;2.97;1.30;;;18.20;97.20;;;;;;1755108;28;20222;-71
2022/09/09 06:55:45;;;;;;;2.78;1.45;;;18.20;97.20;;;;;;1755197;28;20611;-71
2022/09/09 06:56:40;;;;;;;5.43;1.27;;;18.20;97.20;;;;;;1755102;28;20224;-71
2022/09/09 06:57:31;;;;;;;3.58;1.40;;;18.20;97.20;;;;;;1754917;28;20202;-71
2022/09/09 06:58:23;;;;;;;3.35;1.38;;;18.20;97.20;;;;;;1755010;28;20276;-71
2022/09/09 06:59:15;;;;;;;1.90;1.10;;;18.20;97.20;;;;;;1755153;28;20197;-71
2022/09/09 07:00:07;;;;;;;4.20;1.40;;;18.20;97.20;;;;;;1755142;28;20198;-71
2022/09/09 07:01:05;;;;;;;2.55;1.35;;;18.20;97.20;;;;;;1753445;28;20194;-71
2022/09/09 07:01:56;;;;;;;4.10;1.80;;;18.20;97.20;;;;;;1754855;28;20612;-71
2022/09/09 07:02:50;;;;;;;10.48;1.50;;;18.20;97.20;;;;;;1755132;28;20262;-72
2022/09/09 07:03:42;;;;;;;1.73;1.20;;;18.20;97.20;;;;;;1755155;28;20590;-71
2022/09/09 07:04:34;;;;;;;3.05;1.50;;;18.20;97.20;;;;;;1755219;28;20201;-72
2022/09/09 07:05:26;;;;;;;2.47;1.17;;;18.20;97.20;;;;;;1755176;28;20673;-70
2022/09/09 07:06:19;;;;;;;1.40;1.00;;;18.20;97.20;;;;;;1755126;28;20541;-71
2022/09/09 07:07:12;;;;;;;2.28;1.27;;;18.20;97.20;;;;;;1754729;28;20221;-71
2022/09/09 07:08:03;;;;;;;3.25;1.30;;;18.20;97.20;;;;;;1755113;28;20206;-70
2022/09/09 07:08:56;;;;;;;3.20;1.30;;;18.20;97.20;;;;;;1755126;28;20208;-71
2022/09/09 07:09:48;;;;;;;2.70;1.15;;;18.20;97.20;;;;;;1754967;28;20629;-70
2022/09/09 07:10:39;;;;;;;9.45;1.75;;;18.30;97.20;;;;;;1755171;28;20208;-70
2022/09/09 07:11:34;;;;;;;4.23;1.77;;;18.30;97.20;;;;;;1755092;28;20194;-71
2022/09/09 07:12:24;;;;;;;3.47;1.60;;;18.30;97.20;;;;;;1755174;28;20228;-70
2022/09/09 07:13:21;;;;;;;1.70;1.03;;;18.30;97.20;;;;;;1755050;28;20197;-71
2022/09/09 07:14:13;;;;;;;3.35;1.30;;;18.30;97.20;;;;;;1755125;28;20689;-72
2022/09/09 07:15:06;;;;;;;2.95;1.30;;;18.30;97.20;;;;;;1754915;28;20225;-71
2022/09/09 07:16:04;;;;;;;4.35;1.38;;;18.30;97.20;;;;;;1755075;28;20241;-71
2022/09/09 07:16:55;;;;;;;2.95;1.40;;;18.30;97.20;;;;;;1754835;28;20272;-71
2022/09/09 07:17:47;;;;;;;4.25;1.42;;;18.30;97.20;;;;;;1752991;28;20198;-71
2022/09/09 07:18:40;;;;;;;4.45;1.65;;;18.30;97.20;;;;;;1754956;28;20204;-71
2022/09/09 07:19:31;;;;;;;2.70;1.30;;;18.40;97.20;;;;;;1755061;28;20339;-71
2022/09/09 07:20:23;;;;;;;2.80;1.30;;;18.40;97.20;;;;;;1755086;28;20197;-71
2022/09/09 07:21:15;;;;;;;3.25;1.23;;;18.40;97.20;;;;;;1755186;28;20627;-72
2022/09/09 07:22:07;;;;;;;4.15;1.52;;;18.40;97.20;;;;;;1755022;28;20197;-71
2022/09/09 07:22:59;;;;;;;4.47;1.65;;;18.40;97.20;;;;;;1755021;28;20198;-71
2022/09/09 07:23:51;;;;;;;3.13;1.20;;;18.40;97.20;;;;;;1755004;28;20255;-70
2022/09/09 07:24:43;;;;;;;1.85;1.45;;;18.40;97.20;;;;;;1755011;28;20209;-72
2022/09/09 07:25:35;;;;;;;2.00;1.08;;;18.40;97.20;;;;;;1754990;28;20201;-72
2022/09/09 07:26:28;;;;;;;2.47;1.55;;;18.40;97.20;;;;;;1754876;28;20214;-71
2022/09/09 07:27:20;;;;;;;1.95;1.50;;;18.40;97.20;;;;;;1754714;28;20272;-71
2022/09/09 07:28:10;;;;;;;1.63;1.00;;;18.50;97.20;;;;;;1754812;28;20194;-71
2022/09/09 07:29:02;;;;;;;2.77;1.10;;;18.50;97.20;;;;;;1754960;28;20201;-71
2022/09/09 07:29:54;;;;;;;2.13;1.30;;;18.50;97.20;;;;;;1755076;28;20715;-71
2022/09/09 07:30:54;;;;;;;2.30;1.77;;;18.50;97.20;;;;;;1749082;28;20194;-71
2022/09/09 07:31:46;;;;;;;3.25;1.25;;;18.50;97.20;;;;;;1748015;28;20616;-71
2022/09/09 07:32:36;;;;;;;2.83;1.30;;;18.50;97.20;;;;;;1748114;28;20198;-71
2022/09/09 07:33:30;;;;;;;1.90;1.10;;;18.50;97.20;;;;;;1748014;28;20198;-71
2022/09/09 07:34:21;;;;;;;3.42;1.05;;;18.50;97.20;;;;;;1748117;28;20202;-71
2022/09/09 07:35:13;;;;;;;3.30;1.30;;;18.50;97.20;;;;;;1747959;28;20226;-71
2022/09/09 07:36:06;;;;;;;2.75;1.25;;;18.50;97.20;;;;;;1748087;28;20618;-70
2022/09/09 07:37:00;;;;;;;3.28;1.38;;;18.50;97.20;;;;;;1747980;28;20218;-71
2022/09/09 07:37:50;;;;;;;2.25;1.35;;;18.60;97.20;;;;;;1747687;28;20203;-71
2022/09/09 07:38:45;;;;;;;5.13;2.03;;;18.60;97.20;;;;;;1747987;28;20232;-71
2022/09/09 07:39:35;;;;;;;2.03;1.50;;;18.60;97.20;;;;;;1748077;28;20572;-71
2022/09/09 07:40:28;;;;;;;1.90;1.30;;;18.60;97.20;;;;;;1747989;28;20202;-72
2022/09/09 07:41:22;;;;;;;2.28;1.10;;;18.60;97.20;;;;;;1747980;28;20202;-71
2022/09/09 07:42:15;;;;;;;2.95;1.25;;;18.60;97.20;;;;;;1748068;28;20198;-71
2022/09/09 07:43:05;;;;;;;1.63;1.30;;;18.70;97.20;;;;;;1747951;28;20687;-71
2022/09/09 07:43:58;;;;;;;2.97;1.33;;;18.70;97.20;;;;;;1747988;28;20198;-71
2022/09/09 07:44:48;;;;;;;2.42;1.40;;;18.70;97.20;;;;;;1752968;28;20194;-71
2022/09/09 07:45:41;;;;;;;1.67;1.33;;;18.70;97.20;;;;;;1755010;28;20202;-71
2022/09/09 07:46:33;;;;;;;2.92;1.20;;;18.70;97.20;;;;;;1754902;28;20239;-71
2022/09/09 07:47:25;;;;;;;1.30;1.10;;;18.80;97.20;;;;;;1754651;28;20200;-71
2022/09/09 07:48:16;;;;;;;6.93;1.40;;;18.80;97.20;;;;;;1754899;28;20205;-70
2022/09/09 07:49:09;;;;;;;1.50;1.00;;;18.80;97.20;;;;;;1754895;28;20221;-71
2022/09/09 07:50:00;;;;;;;7.43;1.40;;;18.80;97.20;;;;;;1754984;28;20683;-70
2022/09/09 07:50:51;;;;;;;2.20;1.30;;;18.80;97.20;;;;;;1748225;28;20649;-71
2022/09/09 07:51:45;;;;;;;2.17;1.30;;;18.90;97.20;;;;;;1747956;28;20220;-71
2022/09/09 07:52:38;;;;;;;2.25;1.30;;;18.90;97.20;;;;;;1747958;28;20194;-70
2022/09/09 07:53:30;;;;;;;2.67;1.10;;;18.90;97.20;;;;;;1747980;28;20632;-71
2022/09/09 07:54:23;;;;;;;4.75;1.23;;;19.00;97.20;;;;;;1748034;28;20206;-71
2022/09/09 07:55:14;;;;;;;2.20;1.25;;;19.00;97.20;;;;;;1747185;28;20226;-71
2022/09/09 07:56:09;;;;;;;4.57;1.08;;;19.00;97.20;;;;;;1747529;28;20229;-71
2022/09/09 07:56:59;;;;;;;2.03;1.27;;;19.10;97.20;;;;;;1747788;28;20222;-70
2022/09/09 07:57:51;;;;;;;2.70;1.30;;;19.10;97.20;;;;;;1747650;28;20222;-71
2022/09/09 07:58:44;;;;;;;1.75;1.30;;;19.10;97.20;;;;;;1747812;28;20202;-70
2022/09/09 07:59:36;;;;;;;1.85;1.10;;;19.20;97.20;;;;;;1748039;28;20248;-71
2022/09/09 08:00:28;;;;;;;1.92;1.23;;;19.20;97.20;;;;;;1747936;28;20615;-71
2022/09/09 08:01:21;;;;;;;1.75;1.10;;;19.20;97.20;;;;;;1751253;28;20790;-71
2022/09/09 08:02:12;;;;;;;3.17;1.45;;;19.20;97.20;;;;;;1754892;28;20205;-71
2022/09/09 08:03:04;;;;;;;4.37;1.43;;;19.20;97.20;;;;;;1754892;28;20225;-71
2022/09/09 08:03:58;;;;;;;4.15;1.92;;;19.20;97.20;;;;;;1755026;28;20197;-71
2022/09/09 08:04:51;;;;;;;2.50;1.30;;;19.20;97.20;;;;;;1754867;28;20250;-71
2022/09/09 08:05:42;;;;;;;4.10;1.52;;;19.20;97.20;;;;;;1754898;28;20209;-71
2022/09/09 08:06:37;;;;;;;4.05;1.23;;;19.20;97.20;;;;;;1755004;28;20657;-70
2022/09/09 08:07:29;;;;;;;2.38;1.25;;;19.30;97.20;;;;;;1754583;28;20574;-71
2022/09/09 08:08:22;;;;;;;2.90;1.42;;;19.30;97.20;;;;;;1754976;28;20202;-71
2022/09/09 08:09:13;;;;;;;2.20;1.30;;;19.30;97.20;;;;;;1754876;28;20202;-71
2022/09/09 08:10:06;;;;;;;2.20;1.30;;;19.30;97.20;;;;;;1754813;28;20241;-71
2022/09/09 08:11:07;;;;;;;3.72;1.50;;;19.40;97.20;;;;;;1754893;28;20194;-72
2022/09/09 08:12:00;;;;;;;3.10;1.08;;;19.40;97.20;;;;;;1754886;28;20676;-72
2022/09/09 08:12:52;;;;;;;3.40;1.40;;;19.40;97.20;;;;;;1754839;28;20200;-72
2022/09/09 08:13:44;;;;;;;1.77;1.55;;;19.50;97.20;;;;;;1754820;28;20198;-71
2022/09/09 08:14:35;;;;;;;2.28;1.20;;;19.50;97.20;;;;;;1754899;28;20204;-72
2022/09/09 08:15:27;;;;;;;3.33;1.13;;;19.60;97.20;;;;;;1754796;28;20218;-72
2022/09/09 08:16:21;;;;;;;1.67;1.08;;;19.60;97.20;;;;;;1754940;28;20198;-72
2022/09/09 08:17:13;;;;;;;2.55;1.00;;;19.70;97.20;;;;;;1754511;28;20219;-72
2022/09/09 08:18:04;;;;;;;4.85;1.45;;;19.70;97.20;;;;;;1749171;28;20225;-72
2022/09/09 08:18:55;;;;;;;3.40;1.70;;;19.80;97.20;;;;;;1747880;28;20198;-72
2022/09/09 08:19:46;;;;;;;2.63;1.25;;;19.80;97.20;;;;;;1747845;28;20851;-72
2022/09/09 08:20:38;;;;;;;4.83;1.17;;;19.90;97.20;;;;;;1748024;28;20226;-71
2022/09/09 08:21:31;;;;;;;3.33;1.48;;;19.90;97.20;;;;;;1747926;28;20502;-70
2022/09/09 08:22:24;;;;;;;2.63;1.05;;;20.00;97.20;;;;;;1747858;28;20248;-71
2022/09/09 08:23:15;;;;;;;4.13;1.70;;;20.00;97.20;;;;;;1747919;28;20206;-72
2022/09/09 08:24:10;;;;;;;2.40;1.40;;;20.10;97.20;;;;;;1747950;28;20198;-71
2022/09/09 08:25:02;;;;;;;2.92;1.20;;;20.10;97.20;;;;;;1747928;28;20199;-71
2022/09/09 08:25:53;;;;;;;2.25;1.00;;;20.10;97.20;;;;;;1747639;28;20278;-71
2022/09/09 08:26:48;;;;;;;2.42;1.05;;;20.20;97.20;;;;;;1747294;28;20202;-71
2022/09/09 08:27:39;;;;;;;3.10;1.00;;;20.20;97.20;;;;;;1747324;28;20206;-71
2022/09/09 08:28:31;;;;;;;4.40;1.20;;;20.20;97.20;;;;;;1747487;28;20202;-71
2022/09/09 08:29:23;;;;;;;2.05;1.20;;;20.20;97.20;;;;;;1747497;28;20824;-72
2022/09/09 08:30:15;;;;;;;3.40;1.45;;;20.30;97.20;;;;;;1747489;28;20202;-72
2022/09/09 08:31:11;;;;;;;3.10;1.17;;;20.30;97.20;;;;;;1747483;28;20664;-71
2022/09/09 08:32:03;;;;;;;3.40;1.08;;;20.30;97.20;;;;;;1747523;28;20199;-72
2022/09/09 08:32:54;;;;;;;3.60;1.38;;;20.30;97.20;;;;;;1747511;28;20652;-72
2022/09/09 08:33:46;;;;;;;4.10;1.00;;;20.40;97.20;;;;;;1747324;28;20201;-72
2022/09/09 08:34:36;;;;;;;5.25;1.75;;;20.40;97.20;;;;;;1747427;28;20199;-71
2022/09/09 08:35:32;;;;;;;2.30;1.70;;;20.40;97.20;;;;;;1747371;28;20222;-71
2022/09/09 08:36:25;;;;;;;3.92;1.30;;;20.50;97.20;;;;;;1747515;28;20567;-70
2022/09/09 08:37:17;;;;;;;5.13;1.35;;;20.50;97.20;;;;;;1747154;28;20302;-71
2022/09/09 08:38:08;;;;;;;3.28;1.20;;;20.50;97.20;;;;;;1747508;28;20231;-72
2022/09/09 08:39:00;;;;;;;1.93;1.20;;;20.60;97.20;;;;;;1746769;28;20715;-73
2022/09/09 08:39:53;;;;;;;2.67;1.30;;;20.70;97.20;;;;;;1752311;28;20578;-70
2022/09/09 08:40:49;;;;;;;3.45;1.15;;;20.70;97.20;;;;;;1755320;28;20675;-73
2022/09/09 08:42:07;;;;;;;2.85;1.10;;;20.80;97.20;;;;;;1755579;28;20649;-73
2022/09/09 08:43:01;;;;;;;2.95;1.10;;;20.80;97.20;;;;;;1754359;28;20201;-72
2022/09/09 08:44:02;;;;;;;3.63;1.40;;;20.90;97.20;;;;;;1755536;28;20201;-74
2022/09/09 08:45:11;;;;;;;3.38;1.00;;;20.90;97.20;;;;;;1755521;28;20209;-70
2022/09/09 08:46:10;;;;;;;4.28;1.70;;;20.90;97.20;;;;;;1755555;28;20280;-70
2022/09/09 08:47:10;;;;;;;2.70;1.27;;;20.90;97.20;;;;;;1755281;28;20229;-72
2022/09/09 08:48:18;;;;;;;3.17;1.08;;;21.00;97.20;;;;;;1755322;28;20631;-70
2022/09/09 08:49:22;;;;;;;3.80;1.10;;;21.00;97.20;;;;;;1755486;28;20549;-70
2022/09/09 08:50:24;;;;;;;2.88;1.10;;;21.00;97.20;;;;;;1754757;28;20537;-71
2022/09/09 08:51:15;;;;;;;4.70;1.30;;;21.00;97.20;;;;;;1748603;28;20321;-70
2022/09/09 08:52:12;;;;;;;2.50;1.30;;;21.00;97.20;;;;;;1748536;28;20225;-71
2022/09/09 08:53:10;;;;;;;2.70;1.23;;;21.00;97.20;;;;;;1748619;28;20203;-70
2022/09/09 08:54:03;;;;;;;2.72;1.33;;;21.00;97.20;;;;;;1748609;28;20183;-70
2022/09/09 08:55:02;;;;;;;2.40;1.30;;;21.00;97.20;;;;;;1748494;28;20256;-70
2022/09/09 08:55:55;;;;;;;1.77;1.40;;;21.00;97.20;;;;;;1748529;28;20203;-70
2022/09/09 08:56:47;;;;;;;1.88;1.10;;;21.00;97.20;;;;;;1748163;28;20248;-71
2022/09/09 08:57:39;;;;;;;2.95;0.80;;;21.00;97.20;;;;;;1747829;28;20217;-70
2022/09/09 08:58:32;;;;;;;2.33;1.10;;;21.00;97.20;;;;;;1748286;28;20194;-70
2022/09/09 08:59:23;;;;;;;1.67;1.05;;;21.00;97.20;;;;;;1748612;28;20206;-71
2022/09/09 09:00:15;;;;;;;2.30;1.33;;;21.00;97.20;;;;;;1748518;28;20198;-70
2022/09/09 09:01:28;;;;;;;3.35;1.10;;;21.00;97.20;;;;;;1748476;28;20240;-70
2022/09/09 09:02:26;;;;;;;1.80;1.00;;;21.10;97.20;;;;;;1748616;28;20888;-71
2022/09/09 09:03:27;;;;;;;3.15;1.00;;;21.10;97.20;;;;;;1748550;28;20211;-71
2022/09/09 09:04:35;;;;;;;3.40;1.27;;;21.10;97.20;;;;;;1748564;28;20194;-70
2022/09/09 09:05:32;;;;;;;2.72;1.20;;;21.10;97.20;;;;;;1748451;28;20203;-71
2022/09/09 09:06:37;;;;;;;3.58;1.65;;;21.10;97.20;;;;;;1748427;28;20530;-70
2022/09/09 09:07:41;;;;;;;2.17;1.00;;;21.10;97.20;;;;;;1752564;28;20614;-70
2022/09/09 09:08:41;;;;;;;3.28;1.25;;;21.10;97.20;;;;;;1755343;28;20204;-70
2022/09/09 09:09:39;;;;;;;1.52;1.42;;;21.10;97.20;;;;;;1755373;28;20618;-70
2022/09/09 09:10:47;;;;;;;3.10;1.25;;;21.10;97.20;;;;;;1755366;28;20221;-70
2022/09/09 09:11:40;;;;;;;2.65;1.00;;;21.20;97.20;;;;;;1755497;28;20210;-70
2022/09/09 09:12:39;;;;;;;2.20;1.30;;;21.20;97.20;;;;;;1755323;28;20198;-70
2022/09/09 09:13:40;;;;;;;3.00;1.55;;;21.30;97.20;;;;;;1755399;28;20556;-70
2022/09/09 09:14:36;;;;;;;3.03;1.25;;;21.40;97.20;;;;;;1755307;28;20202;-70
2022/09/09 09:15:30;;;;;;;3.78;1.42;;;21.40;97.20;;;;;;1755270;28;20246;-70
2022/09/09 09:16:28;;;;;;;3.88;1.70;;;21.50;97.20;;;;;;1755427;28;20202;-71
2022/09/09 09:17:21;;;;;;;3.58;1.02;;;21.50;97.20;;;;;;1754666;28;20611;-70
2022/09/09 09:18:15;;;;;;;3.45;1.20;;;21.50;97.20;;;;;;1755144;28;20194;-70
2022/09/09 09:19:11;;;;;;;2.45;0.85;;;21.50;97.20;;;;;;1755184;28;20206;-70
2022/09/09 09:20:07;;;;;;;3.40;1.45;;;21.50;97.20;;;;;;1755403;28;20728;-70
2022/09/09 09:21:05;;;;;;;6.65;2.28;;;21.40;97.20;;;;;;1755510;28;20182;-72
2022/09/09 09:22:04;;;;;;;3.83;1.20;;;21.20;97.20;;;;;;1755418;28;20198;-69
2022/09/09 09:22:59;;;;;;;5.78;1.33;;;21.10;97.20;;;;;;1755414;28;20190;-71
2022/09/09 09:23:57;;;;;;;3.83;1.10;;;20.90;97.20;;;;;;1752887;28;20198;-73
2022/09/09 09:24:52;;;;;;;4.95;2.05;;;20.70;97.20;;;;;;1748311;28;20238;-71
2022/09/09 09:25:45;;;;;;;3.60;2.00;;;20.60;97.20;;;;;;1700638;28;1361260;-70
2022/09/09 09:26:37;;;;;;;2.17;1.00;;;20.40;97.20;;;;;;1747977;28;20236;-74
2022/09/09 09:27:35;;;;;;;3.45;1.17;;;20.30;97.20;;;;;;1747727;28;20198;-71
2022/09/09 09:28:29;;;;;;;1.80;0.80;;;20.20;97.20;;;;;;1748536;28;20201;-70
2022/09/09 09:29:22;;;;;;;2.53;1.13;;;20.00;97.20;;;;;;1748805;28;20259;-70
2022/09/09 09:30:17;;;;;;;3.95;1.10;;;20.00;97.20;;;;;;1748662;28;20198;-70
2022/09/09 09:31:11;;;;;;;5.45;1.33;;;19.90;97.20;;;;;;1748623;28;20199;-70
2022/09/09 09:32:03;;;;;;;3.72;1.10;;;19.90;97.20;;;;;;1748634;28;20203;-72
2022/09/09 09:32:59;;;;;;;6.00;1.40;;;19.90;97.20;;;;;;1748768;28;20194;-70
2022/09/09 09:33:52;;;;;;;4.15;1.13;;;20.00;97.20;;;;;;1748693;28;20230;-70
2022/09/09 09:34:50;;;;;;;2.50;1.20;;;20.00;97.20;;;;;;1748703;28;20252;-70
2022/09/09 09:35:41;;;;;;;1.45;0.70;;;20.10;97.20;;;;;;1748551;28;20202;-71
2022/09/09 09:36:41;;;;;;;1.80;0.90;;;20.10;97.20;;;;;;1748508;28;20202;-74